Time,TemperatureF,DewpointF,PressureIn,WindDirection,WindDirectionDegrees,WindSpeedMPH,WindSpeedGustMPH,Humidity,HourlyPrecipIn,Conditions,Clouds,dailyrainin,SoftwareType,DateUTC
2013-01-24 00:01:00,49.6,47.0,28.58,North,360,0.0,3.0,90,0.00,,,0.00,weatherlink.com 1.10,2013-01-24 08:01:00,
2013-01-24 00:16:00,49.6,47.0,28.57,WSW,252,3.0,5.0,90,0.00,,,0.00,weatherlink.com 1.10,2013-01-24 08:16:00,
2013-01-24 00:31:00,49.4,47.0,28.57,West,265,5.0,6.0,91,0.00,,,0.00,weatherlink.com 1.10,2013-01-24 08:31:00,
2013-01-24 00:46:00,49.3,47.0,28.57,West,261,6.0,7.0,91,0.00,,,0.00,weatherlink.com 1.10,2013-01-24 08:46:00,
2013-01-24 01:01:00,49.2,47.0,28.56,NNW,329,5.0,7.0,92,0.00,,,0.00,weatherlink.com 1.10,2013-01-24 09:01:00,
2013-01-24 01:16:00,49.2,47.0,28.57,WNW,285,5.0,7.0,92,0.00,,,0.00,weatherlink.com 1.10,2013-01-24 09:16:00,
2013-01-24 01:31:00,49.0,47.0,28.57,West,267,6.0,9.0,92,0.00,,,0.00,weatherlink.com 1.10,2013-01-24 09:31:00,
2013-01-24 01:46:00,48.8,47.0,28.58,West,270,4.0,8.0,92,0.00,,,0.00,weatherlink.com 1.10,2013-01-24 09:46:00,
2013-01-24 02:01:00,48.6,46.0,28.59,WNW,290,4.0,7.0,92,0.01,,,0.01,weatherlink.com 1.10,2013-01-24 10:01:00,
2013-01-24 02:16:00,48.5,47.0,28.58,WNW,284,4.0,10.0,93,0.01,,,0.01,weatherlink.com 1.10,2013-01-24 10:16:00,
2013-01-24 02:31:00,48.6,47.0,28.57,WNW,283,6.0,10.0,93,0.01,,,0.01,weatherlink.com 1.10,2013-01-24 10:31:00,
2013-01-24 02:46:00,48.7,47.0,28.58,WNW,289,4.0,11.0,93,0.01,,,0.01,weatherlink.com 1.10,2013-01-24 10:46:00,
2013-01-24 03:01:00,48.8,47.0,28.58,WNW,298,3.0,7.0,92,0.00,,,0.01,weatherlink.com 1.10,2013-01-24 11:01:00,
2013-01-24 03:16:00,48.6,47.0,28.58,NW,304,2.0,7.0,93,0.00,,,0.01,weatherlink.com 1.10,2013-01-24 11:16:00,
2013-01-24 03:31:00,48.5,47.0,28.57,WNW,289,2.0,6.0,93,0.00,,,0.01,weatherlink.com 1.10,2013-01-24 11:31:00,
2013-01-24 03:46:00,48.5,47.0,28.57,WNW,302,3.0,5.0,94,0.00,,,0.01,weatherlink.com 1.10,2013-01-24 11:46:00,
2013-01-24 04:01:00,48.4,47.0,28.57,West,269,1.0,5.0,94,0.00,,,0.01,weatherlink.com 1.10,2013-01-24 12:01:00,
2013-01-24 04:16:00,48.5,47.0,28.58,NW,317,2.0,5.0,94,0.00,,,0.01,weatherlink.com 1.10,2013-01-24 12:16:00,
2013-01-24 04:31:00,48.5,47.0,28.59,WNW,297,2.0,6.0,94,0.00,,,0.01,weatherlink.com 1.10,2013-01-24 12:31:00,
2013-01-24 04:46:00,48.3,47.0,28.59,WNW,286,1.0,5.0,95,0.00,,,0.01,weatherlink.com 1.10,2013-01-24 12:46:00,
2013-01-24 05:01:00,48.3,47.0,28.60,West,277,2.0,4.0,95,0.00,,,0.01,weatherlink.com 1.10,2013-01-24 13:01:00,
2013-01-24 05:16:00,48.2,47.0,28.59,NW,315,3.0,4.0,95,0.01,,,0.02,weatherlink.com 1.10,2013-01-24 13:16:00,
2013-01-24 05:31:00,48.1,47.0,28.59,NW,306,2.0,5.0,95,0.01,,,0.02,weatherlink.com 1.10,2013-01-24 13:31:00,
2013-01-24 05:46:00,48.1,47.0,28.60,NW,308,2.0,4.0,96,0.01,,,0.02,weatherlink.com 1.10,2013-01-24 13:46:00,
2013-01-24 06:01:00,48.1,47.0,28.61,NW,308,2.0,4.0,96,0.02,,,0.03,weatherlink.com 1.10,2013-01-24 14:01:00,
2013-01-24 06:16:00,48.1,47.0,28.61,NW,308,1.0,3.0,96,0.01,,,0.03,weatherlink.com 1.10,2013-01-24 14:16:00,
2013-01-24 06:31:00,48.1,47.0,28.61,NW,325,1.0,3.0,96,0.01,,,0.03,weatherlink.com 1.10,2013-01-24 14:31:00,
2013-01-24 06:46:00,48.1,47.0,28.61,NW,324,1.0,3.0,96,0.01,,,0.03,weatherlink.com 1.10,2013-01-24 14:46:00,
2013-01-24 07:02:00,48.1,47.0,28.62,NW,317,2.0,4.0,96,0.00,,,0.03,weatherlink.com 1.10,2013-01-24 15:02:00,
2013-01-24 07:17:00,48.1,47.0,28.62,NW,311,1.0,4.0,96,0.00,,,0.03,weatherlink.com 1.10,2013-01-24 15:17:00,
2013-01-24 07:32:00,48.1,47.0,28.62,NNW,336,3.0,4.0,96,0.00,,,0.03,weatherlink.com 1.10,2013-01-24 15:32:00,
2013-01-24 07:47:00,48.2,47.0,28.62,NNE,19,2.0,4.0,97,0.00,,,0.03,weatherlink.com 1.10,2013-01-24 15:47:00,
2013-01-24 08:02:00,48.3,48.0,28.63,NNE,19,0.0,3.0,97,0.00,,,0.03,weatherlink.com 1.10,2013-01-24 16:02:00,
2013-01-24 08:17:00,48.6,48.0,28.63,NW,310,1.0,3.0,97,0.00,,,0.03,weatherlink.com 1.10,2013-01-24 16:17:00,
2013-01-24 08:32:00,48.7,48.0,28.64,WNW,286,1.0,3.0,96,0.00,,,0.03,weatherlink.com 1.10,2013-01-24 16:32:00,
2013-01-24 08:47:00,49.0,48.0,28.65,SW,219,2.0,3.0,97,0.00,,,0.03,weatherlink.com 1.10,2013-01-24 16:47:00,
2013-01-24 09:02:00,49.1,48.0,28.66,WSW,239,2.0,4.0,96,0.00,,,0.03,weatherlink.com 1.10,2013-01-24 17:02:00,
2013-01-24 09:17:00,49.2,48.0,28.66,WSW,256,2.0,4.0,96,0.00,,,0.03,weatherlink.com 1.10,2013-01-24 17:17:00,
2013-01-24 09:32:00,49.4,48.0,28.67,SW,229,2.0,4.0,96,0.00,,,0.03,weatherlink.com 1.10,2013-01-24 17:32:00,
2013-01-24 09:47:00,49.7,49.0,28.67,WSW,258,6.0,6.0,96,0.00,,,0.03,weatherlink.com 1.10,2013-01-24 17:47:00,
2013-01-24 10:02:00,50.1,49.0,28.67,West,275,3.0,5.0,95,0.00,,,0.03,weatherlink.com 1.10,2013-01-24 18:02:00,
2013-01-24 10:17:00,50.6,49.0,28.67,West,265,4.0,6.0,95,0.00,,,0.03,weatherlink.com 1.10,2013-01-24 18:17:00,
2013-01-24 10:32:00,51.0,49.0,28.67,WSW,247,2.0,5.0,94,0.00,,,0.03,weatherlink.com 1.10,2013-01-24 18:32:00,
2013-01-24 10:47:00,51.3,50.0,28.67,WSW,237,2.0,5.0,94,0.00,,,0.03,weatherlink.com 1.10,2013-01-24 18:47:00,
2013-01-24 11:02:00,51.7,50.0,28.66,West,271,5.0,5.0,93,0.00,,,0.03,weatherlink.com 1.10,2013-01-24 19:02:00,
2013-01-24 11:17:00,52.3,50.0,28.66,WSW,245,3.0,6.0,93,0.00,,,0.03,weatherlink.com 1.10,2013-01-24 19:17:00,
2013-01-24 11:32:00,52.3,50.0,28.66,West,268,5.0,7.0,92,0.00,,,0.03,weatherlink.com 1.10,2013-01-24 19:32:00,
2013-01-24 11:47:00,53.4,51.0,28.65,WNW,299,4.0,7.0,91,0.00,,,0.03,weatherlink.com 1.10,2013-01-24 19:47:00,
2013-01-24 12:02:00,55.1,52.0,28.65,NW,313,3.0,8.0,89,0.00,,,0.03,weatherlink.com 1.10,2013-01-24 20:02:00,
2013-01-24 12:18:00,55.5,52.0,28.65,WNW,282,3.0,7.0,87,0.00,,,0.03,weatherlink.com 1.10,2013-01-24 20:18:00,
2013-01-24 12:32:00,55.8,52.0,28.65,NW,310,2.0,6.0,87,0.00,,,0.03,weatherlink.com 1.10,2013-01-24 20:32:00,
2013-01-24 12:47:00,56.5,52.0,28.64,North,350,3.0,5.0,84,0.00,,,0.03,weatherlink.com 1.10,2013-01-24 20:47:00,
2013-01-24 13:02:00,56.7,52.0,28.63,WNW,300,4.0,5.0,84,0.00,,,0.03,weatherlink.com 1.10,2013-01-24 21:02:00,
2013-01-24 13:17:00,57.0,52.0,28.63,NW,314,2.0,6.0,83,0.00,,,0.03,weatherlink.com 1.10,2013-01-24 21:17:00,
2013-01-24 13:32:00,56.8,52.0,28.63,North,355,4.0,6.0,84,0.00,,,0.03,weatherlink.com 1.10,2013-01-24 21:32:00,
2013-01-24 13:47:00,56.7,52.0,28.63,NNW,341,4.0,6.0,83,0.00,,,0.03,weatherlink.com 1.10,2013-01-24 21:47:00,
2013-01-24 14:02:00,56.3,52.0,28.62,NNW,344,2.0,6.0,84,0.00,,,0.03,weatherlink.com 1.10,2013-01-24 22:02:00,
2013-01-24 14:17:00,55.9,52.0,28.62,NNW,340,3.0,5.0,85,0.00,,,0.03,weatherlink.com 1.10,2013-01-24 22:17:00,
2013-01-24 14:32:00,55.8,51.0,28.62,NNW,338,2.0,4.0,85,0.00,,,0.03,weatherlink.com 1.10,2013-01-24 22:32:00,
2013-01-24 14:47:00,55.8,51.0,28.63,NNW,329,2.0,4.0,85,0.00,,,0.03,weatherlink.com 1.10,2013-01-24 22:47:00,
2013-01-24 15:02:00,55.3,52.0,28.62,NW,311,2.0,5.0,89,0.01,,,0.04,weatherlink.com 1.10,2013-01-24 23:02:00,
2013-01-24 15:17:00,55.1,52.0,28.63,WNW,299,4.0,5.0,90,0.01,,,0.04,weatherlink.com 1.10,2013-01-24 23:17:00,
2013-01-24 15:32:00,54.8,52.0,28.63,NW,325,2.0,5.0,90,0.01,,,0.04,weatherlink.com 1.10,2013-01-24 23:32:00,
2013-01-24 15:47:00,54.6,52.0,28.64,West,265,4.0,5.0,90,0.01,,,0.04,weatherlink.com 1.10,2013-01-24 23:47:00,
2013-01-24 16:02:00,54.2,52.0,28.64,NW,304,2.0,5.0,91,0.00,,,0.04,weatherlink.com 1.10,2013-01-25 00:02:00,
2013-01-24 16:17:00,54.0,52.0,28.64,WNW,283,2.0,5.0,92,0.01,,,0.00,weatherlink.com 1.10,2013-01-25 00:17:00,
2013-01-24 16:32:00,53.6,51.0,28.64,NW,306,3.0,5.0,92,0.01,,,0.00,weatherlink.com 1.10,2013-01-25 00:32:00,
2013-01-24 16:47:00,53.3,51.0,28.64,NW,309,2.0,5.0,93,0.01,,,0.00,weatherlink.com 1.10,2013-01-25 00:47:00,
2013-01-24 17:02:00,53.0,51.0,28.64,NNW,348,1.0,4.0,94,0.03,,,0.02,weatherlink.com 1.10,2013-01-25 01:02:00,
2013-01-24 17:17:00,52.8,52.0,28.65,NW,306,0.0,3.0,95,0.02,,,0.02,weatherlink.com 1.10,2013-01-25 01:17:00,
2013-01-24 17:32:00,52.8,52.0,28.66,WNW,298,1.0,3.0,95,0.02,,,0.02,weatherlink.com 1.10,2013-01-25 01:32:00,
2013-01-24 17:47:00,52.6,51.0,28.66,WNW,297,2.0,4.0,95,0.02,,,0.02,weatherlink.com 1.10,2013-01-25 01:47:00,
2013-01-24 18:02:00,52.5,51.0,28.66,West,272,1.0,3.0,96,0.00,,,0.02,weatherlink.com 1.10,2013-01-25 02:02:00,
2013-01-24 18:17:00,52.5,51.0,28.66,West,272,1.0,2.0,96,0.00,,,0.02,weatherlink.com 1.10,2013-01-25 02:17:00,
2013-01-24 18:32:00,52.5,51.0,28.66,WNW,282,1.0,3.0,96,0.00,,,0.02,weatherlink.com 1.10,2013-01-25 02:32:00,
2013-01-24 18:47:00,52.4,51.0,28.67,WNW,282,1.0,2.0,96,0.00,,,0.02,weatherlink.com 1.10,2013-01-25 02:47:00,
2013-01-24 19:02:00,52.3,51.0,28.68,West,262,1.0,3.0,96,0.00,,,0.02,weatherlink.com 1.10,2013-01-25 03:02:00,
2013-01-24 19:17:00,52.1,51.0,28.68,West,273,1.0,3.0,97,0.00,,,0.02,weatherlink.com 1.10,2013-01-25 03:17:00,
2013-01-24 19:32:00,52.0,51.0,28.68,West,273,1.0,3.0,97,0.00,,,0.02,weatherlink.com 1.10,2013-01-25 03:32:00,
2013-01-24 19:47:00,51.8,51.0,28.68,West,273,1.0,2.0,97,0.00,,,0.02,weatherlink.com 1.10,2013-01-25 03:47:00,
2013-01-24 20:02:00,51.7,51.0,28.67,West,273,1.0,3.0,97,0.00,,,0.02,weatherlink.com 1.10,2013-01-25 04:02:00,
2013-01-24 20:17:00,51.5,51.0,28.67,NW,304,2.0,3.0,97,0.00,,,0.02,weatherlink.com 1.10,2013-01-25 04:17:00,
2013-01-24 20:32:00,51.4,51.0,28.67,West,277,2.0,4.0,97,0.00,,,0.02,weatherlink.com 1.10,2013-01-25 04:32:00,
2013-01-24 20:47:00,51.4,51.0,28.67,West,272,3.0,4.0,97,0.00,,,0.02,weatherlink.com 1.10,2013-01-25 04:47:00,
2013-01-24 21:17:00,51.5,51.0,28.68,West,279,3.0,4.0,97,0.00,,,0.02,weatherlink.com 1.10,2013-01-25 05:17:00,
2013-01-24 21:32:00,51.5,51.0,28.68,West,275,4.0,5.0,97,0.00,,,0.02,weatherlink.com 1.10,2013-01-25 05:32:00,
2013-01-24 21:47:00,51.4,51.0,28.69,WSW,246,3.0,5.0,97,0.00,,,0.02,weatherlink.com 1.10,2013-01-25 05:47:00,
2013-01-24 22:02:00,51.3,51.0,28.69,WNW,284,3.0,5.0,97,0.00,,,0.02,weatherlink.com 1.10,2013-01-25 06:02:00,
2013-01-24 22:18:00,51.2,50.0,28.69,WNW,297,2.0,4.0,97,0.00,,,0.02,weatherlink.com 1.10,2013-01-25 06:18:00,
2013-01-24 22:33:00,51.2,50.0,28.69,WNW,294,2.0,3.0,97,0.00,,,0.02,weatherlink.com 1.10,2013-01-25 06:33:00,
2013-01-24 22:48:00,51.1,50.0,28.69,WNW,292,3.0,3.0,97,0.00,,,0.02,weatherlink.com 1.10,2013-01-25 06:48:00,
2013-01-24 23:03:00,51.0,50.0,28.69,WNW,300,2.0,3.0,97,0.00,,,0.02,weatherlink.com 1.10,2013-01-25 07:03:00,
2013-01-24 23:18:00,50.9,50.0,28.69,WNW,285,2.0,4.0,97,0.00,,,0.02,weatherlink.com 1.10,2013-01-25 07:18:00,
2013-01-24 23:33:00,50.7,50.0,28.69,WNW,285,1.0,2.0,97,0.00,,,0.02,weatherlink.com 1.10,2013-01-25 07:33:00,
2013-01-24 23:48:00,50.7,50.0,28.69,WNW,285,2.0,2.0,97,0.00,,,0.02,weatherlink.com 1.10,2013-01-25 07:48:00,